sensor_id;sensor_type;location;lat;lon;timestamp;P1;durP1;ratioP1;P2;durP2;ratioP2
17864;SDS011;9058;52.018;4.202;2023-07-20T00:02:24;2.25;;;2.10;;
17864;SDS011;9058;52.018;4.202;2023-07-20T00:04:51;2.35;;;2.17;;
17864;SDS011;9058;52.018;4.202;2023-07-20T00:07:18;2.33;;;2.13;;
17864;SDS011;9058;52.018;4.202;2023-07-20T00:09:47;2.28;;;1.92;;
17864;SDS011;9058;52.018;4.202;2023-07-20T00:12:14;2.90;;;2.45;;
17864;SDS011;9058;52.018;4.202;2023-07-20T00:14:41;1.23;;;1.10;;
17864;SDS011;9058;52.018;4.202;2023-07-20T00:17:07;1.17;;;1.00;;
17864;SDS011;9058;52.018;4.202;2023-07-20T00:19:34;1.65;;;0.70;;
17864;SDS011;9058;52.018;4.202;2023-07-20T00:22:00;1.60;;;0.75;;
17864;SDS011;9058;52.018;4.202;2023-07-20T00:24:30;2.38;;;0.60;;
17864;SDS011;9058;52.018;4.202;2023-07-20T00:26:59;0.75;;;0.65;;
17864;SDS011;9058;52.018;4.202;2023-07-20T00:29:27;3.05;;;0.50;;
17864;SDS011;9058;52.018;4.202;2023-07-20T00:31:54;1.00;;;0.63;;
17864;SDS011;9058;52.018;4.202;2023-07-20T00:34:21;3.60;;;0.50;;
17864;SDS011;9058;52.018;4.202;2023-07-20T00:36:47;5.68;;;0.60;;
17864;SDS011;9058;52.018;4.202;2023-07-20T00:39:14;3.03;;;0.60;;
17864;SDS011;9058;52.018;4.202;2023-07-20T00:41:41;1.85;;;0.50;;
17864;SDS011;9058;52.018;4.202;2023-07-20T00:44:09;0.90;;;0.55;;
17864;SDS011;9058;52.018;4.202;2023-07-20T00:46:36;1.55;;;0.63;;
17864;SDS011;9058;52.018;4.202;2023-07-20T00:49:04;0.70;;;0.52;;
17864;SDS011;9058;52.018;4.202;2023-07-20T00:51:32;4.05;;;0.90;;
17864;SDS011;9058;52.018;4.202;2023-07-20T00:53:59;1.23;;;0.47;;
17864;SDS011;9058;52.018;4.202;2023-07-20T00:56:25;1.45;;;0.57;;
17864;SDS011;9058;52.018;4.202;2023-07-20T00:58:53;0.95;;;0.50;;
17864;SDS011;9058;52.018;4.202;2023-07-20T01:01:21;0.50;;;0.50;;
17864;SDS011;9058;52.018;4.202;2023-07-20T01:03:48;1.05;;;0.75;;
17864;SDS011;9058;52.018;4.202;2023-07-20T01:06:15;0.63;;;0.63;;
17864;SDS011;9058;52.018;4.202;2023-07-20T01:08:46;1.20;;;0.80;;
17864;SDS011;9058;52.018;4.202;2023-07-20T01:11:15;0.98;;;0.85;;
17864;SDS011;9058;52.018;4.202;2023-07-20T01:13:42;1.05;;;0.80;;
17864;SDS011;9058;52.018;4.202;2023-07-20T01:16:09;2.17;;;1.20;;
17864;SDS011;9058;52.018;4.202;2023-07-20T01:18:39;1.42;;;0.95;;
17864;SDS011;9058;52.018;4.202;2023-07-20T01:21:06;3.15;;;1.00;;
17864;SDS011;9058;52.018;4.202;2023-07-20T01:23:49;2.33;;;0.80;;
17864;SDS011;9058;52.018;4.202;2023-07-20T01:26:27;1.58;;;0.70;;
17864;SDS011;9058;52.018;4.202;2023-07-20T01:29:08;1.13;;;0.60;;
17864;SDS011;9058;52.018;4.202;2023-07-20T01:31:40;1.45;;;0.57;;
17864;SDS011;9058;52.018;4.202;2023-07-20T01:34:08;0.30;;;0.30;;
17864;SDS011;9058;52.018;4.202;2023-07-20T01:36:36;1.48;;;0.50;;
17864;SDS011;9058;52.018;4.202;2023-07-20T01:39:03;0.50;;;0.40;;
17864;SDS011;9058;52.018;4.202;2023-07-20T01:41:30;0.50;;;0.50;;
17864;SDS011;9058;52.018;4.202;2023-07-20T01:43:57;0.60;;;0.60;;
17864;SDS011;9058;52.018;4.202;2023-07-20T01:46:23;1.55;;;0.70;;
17864;SDS011;9058;52.018;4.202;2023-07-20T01:48:52;0.43;;;0.43;;
17864;SDS011;9058;52.018;4.202;2023-07-20T01:51:19;0.68;;;0.50;;
17864;SDS011;9058;52.018;4.202;2023-07-20T01:53:45;1.00;;;0.50;;
17864;SDS011;9058;52.018;4.202;2023-07-20T01:56:12;1.33;;;0.50;;
17864;SDS011;9058;52.018;4.202;2023-07-20T01:58:38;3.78;;;0.60;;
17864;SDS011;9058;52.018;4.202;2023-07-20T02:01:05;0.50;;;0.45;;
17864;SDS011;9058;52.018;4.202;2023-07-20T02:03:31;0.63;;;0.63;;
17864;SDS011;9058;52.018;4.202;2023-07-20T02:06:02;1.08;;;0.80;;
17864;SDS011;9058;52.018;4.202;2023-07-20T02:08:29;0.80;;;0.80;;
17864;SDS011;9058;52.018;4.202;2023-07-20T02:10:57;0.60;;;0.60;;
17864;SDS011;9058;52.018;4.202;2023-07-20T02:13:24;1.98;;;0.90;;
17864;SDS011;9058;52.018;4.202;2023-07-20T02:15:51;2.40;;;1.10;;
17864;SDS011;9058;52.018;4.202;2023-07-20T02:18:18;0.93;;;0.90;;
17864;SDS011;9058;52.018;4.202;2023-07-20T02:20:45;1.30;;;1.20;;
17864;SDS011;9058;52.018;4.202;2023-07-20T02:23:15;1.48;;;1.00;;
17864;SDS011;9058;52.018;4.202;2023-07-20T02:25:41;1.52;;;1.40;;
17864;SDS011;9058;52.018;4.202;2023-07-20T02:28:10;1.52;;;1.42;;
17864;SDS011;9058;52.018;4.202;2023-07-20T02:30:39;1.52;;;1.42;;
17864;SDS011;9058;52.018;4.202;2023-07-20T02:33:05;1.90;;;1.45;;
17864;SDS011;9058;52.018;4.202;2023-07-20T02:35:32;2.88;;;1.30;;
17864;SDS011;9058;52.018;4.202;2023-07-20T02:37:58;2.55;;;1.45;;
17864;SDS011;9058;52.018;4.202;2023-07-20T02:40:26;2.08;;;1.40;;
17864;SDS011;9058;52.018;4.202;2023-07-20T02:42:53;1.65;;;1.55;;
17864;SDS011;9058;52.018;4.202;2023-07-20T02:45:19;2.00;;;1.90;;
17864;SDS011;9058;52.018;4.202;2023-07-20T02:47:46;2.33;;;1.90;;
17864;SDS011;9058;52.018;4.202;2023-07-20T02:50:13;2.58;;;1.65;;
17864;SDS011;9058;52.018;4.202;2023-07-20T02:52:40;2.92;;;2.00;;
17864;SDS011;9058;52.018;4.202;2023-07-20T02:55:07;2.78;;;2.58;;
17864;SDS011;9058;52.018;4.202;2023-07-20T02:57:37;2.95;;;2.45;;
17864;SDS011;9058;52.018;4.202;2023-07-20T03:00:04;3.47;;;2.17;;
17864;SDS011;9058;52.018;4.202;2023-07-20T03:02:32;2.20;;;2.00;;
17864;SDS011;9058;52.018;4.202;2023-07-20T03:04:59;5.35;;;2.63;;
17864;SDS011;9058;52.018;4.202;2023-07-20T03:07:26;3.00;;;2.70;;
17864;SDS011;9058;52.018;4.202;2023-07-20T03:09:53;2.75;;;2.42;;
17864;SDS011;9058;52.018;4.202;2023-07-20T03:12:20;3.03;;;2.33;;
17864;SDS011;9058;52.018;4.202;2023-07-20T03:14:48;2.78;;;2.53;;
17864;SDS011;9058;52.018;4.202;2023-07-20T03:17:14;2.65;;;2.20;;
17864;SDS011;9058;52.018;4.202;2023-07-20T03:19:41;5.05;;;2.20;;
17864;SDS011;9058;52.018;4.202;2023-07-20T03:22:08;3.13;;;2.83;;
17864;SDS011;9058;52.018;4.202;2023-07-20T03:24:34;3.03;;;2.72;;
17864;SDS011;9058;52.018;4.202;2023-07-20T03:27:01;3.13;;;2.80;;
17864;SDS011;9058;52.018;4.202;2023-07-20T03:29:28;3.30;;;2.75;;
17864;SDS011;9058;52.018;4.202;2023-07-20T03:31:58;4.43;;;2.83;;
17864;SDS011;9058;52.018;4.202;2023-07-20T03:34:25;3.40;;;2.95;;
17864;SDS011;9058;52.018;4.202;2023-07-20T03:36:52;3.25;;;2.67;;
17864;SDS011;9058;52.018;4.202;2023-07-20T03:39:18;3.78;;;3.10;;
17864;SDS011;9058;52.018;4.202;2023-07-20T03:41:45;4.55;;;3.10;;
17864;SDS011;9058;52.018;4.202;2023-07-20T03:44:12;3.42;;;3.13;;
17864;SDS011;9058;52.018;4.202;2023-07-20T03:46:39;6.60;;;2.80;;
17864;SDS011;9058;52.018;4.202;2023-07-20T03:49:07;5.85;;;3.40;;
17864;SDS011;9058;52.018;4.202;2023-07-20T03:51:34;4.53;;;3.40;;
17864;SDS011;9058;52.018;4.202;2023-07-20T03:54:00;4.35;;;3.95;;
17864;SDS011;9058;52.018;4.202;2023-07-20T03:56:27;3.33;;;3.00;;
17864;SDS011;9058;52.018;4.202;2023-07-20T03:58:53;3.90;;;3.50;;
17864;SDS011;9058;52.018;4.202;2023-07-20T04:01:20;5.38;;;4.25;;
17864;SDS011;9058;52.018;4.202;2023-07-20T04:03:46;5.30;;;3.72;;
17864;SDS011;9058;52.018;4.202;2023-07-20T04:06:14;5.00;;;4.05;;
17864;SDS011;9058;52.018;4.202;2023-07-20T04:08:44;10.57;;;4.50;;
17864;SDS011;9058;52.018;4.202;2023-07-20T04:11:12;4.40;;;4.00;;
17864;SDS011;9058;52.018;4.202;2023-07-20T04:13:39;4.72;;;4.32;;
17864;SDS011;9058;52.018;4.202;2023-07-20T04:16:06;4.40;;;4.00;;
17864;SDS011;9058;52.018;4.202;2023-07-20T04:18:33;11.07;;;4.03;;
17864;SDS011;9058;52.018;4.202;2023-07-20T04:20:59;5.18;;;4.10;;
17864;SDS011;9058;52.018;4.202;2023-07-20T04:23:27;4.43;;;4.10;;
17864;SDS011;9058;52.018;4.202;2023-07-20T04:25:53;4.45;;;3.90;;
17864;SDS011;9058;52.018;4.202;2023-07-20T04:28:20;4.28;;;3.47;;
17864;SDS011;9058;52.018;4.202;2023-07-20T04:30:48;3.90;;;3.60;;
17864;SDS011;9058;52.018;4.202;2023-07-20T04:33:14;5.00;;;3.55;;
17864;SDS011;9058;52.018;4.202;2023-07-20T04:35:45;3.60;;;3.30;;
17864;SDS011;9058;52.018;4.202;2023-07-20T04:38:13;4.22;;;3.30;;
17864;SDS011;9058;52.018;4.202;2023-07-20T04:40:42;3.92;;;3.53;;
17864;SDS011;9058;52.018;4.202;2023-07-20T04:43:09;3.17;;;2.88;;
17864;SDS011;9058;52.018;4.202;2023-07-20T04:45:35;4.43;;;3.08;;
17864;SDS011;9058;52.018;4.202;2023-07-20T04:48:01;4.95;;;3.25;;
17864;SDS011;9058;52.018;4.202;2023-07-20T04:50:28;4.72;;;3.05;;
17864;SDS011;9058;52.018;4.202;2023-07-20T04:52:55;7.50;;;3.10;;
17864;SDS011;9058;52.018;4.202;2023-07-20T04:55:22;4.60;;;3.15;;
17864;SDS011;9058;52.018;4.202;2023-07-20T04:57:51;3.45;;;2.90;;
17864;SDS011;9058;52.018;4.202;2023-07-20T05:00:18;3.78;;;2.45;;
17864;SDS011;9058;52.018;4.202;2023-07-20T05:02:46;2.85;;;2.50;;
17864;SDS011;9058;52.018;4.202;2023-07-20T05:05:14;3.47;;;2.70;;
17864;SDS011;9058;52.018;4.202;2023-07-20T05:07:42;5.60;;;2.40;;
17864;SDS011;9058;52.018;4.202;2023-07-20T05:10:08;2.85;;;2.65;;
17864;SDS011;9058;52.018;4.202;2023-07-20T05:12:35;2.08;;;1.88;;
17864;SDS011;9058;52.018;4.202;2023-07-20T05:15:05;3.03;;;2.22;;
17864;SDS011;9058;52.018;4.202;2023-07-20T05:17:32;2.13;;;1.92;;
17864;SDS011;9058;52.018;4.202;2023-07-20T05:19:59;3.08;;;1.90;;
17864;SDS011;9058;52.018;4.202;2023-07-20T05:22:26;3.40;;;1.70;;
17864;SDS011;9058;52.018;4.202;2023-07-20T05:24:52;3.20;;;1.63;;
17864;SDS011;9058;52.018;4.202;2023-07-20T05:27:19;2.45;;;1.70;;
17864;SDS011;9058;52.018;4.202;2023-07-20T05:29:46;1.38;;;1.27;;
17864;SDS011;9058;52.018;4.202;2023-07-20T05:32:15;1.38;;;1.20;;
17864;SDS011;9058;52.018;4.202;2023-07-20T05:34:42;3.10;;;1.42;;
17864;SDS011;9058;52.018;4.202;2023-07-20T05:37:08;1.25;;;1.15;;
17864;SDS011;9058;52.018;4.202;2023-07-20T05:39:35;1.60;;;1.20;;
17864;SDS011;9058;52.018;4.202;2023-07-20T05:42:02;1.35;;;1.13;;
17864;SDS011;9058;52.018;4.202;2023-07-20T05:44:29;2.28;;;1.10;;
17864;SDS011;9058;52.018;4.202;2023-07-20T05:46:58;2.75;;;1.40;;
17864;SDS011;9058;52.018;4.202;2023-07-20T05:49:27;1.88;;;1.05;;
17864;SDS011;9058;52.018;4.202;2023-07-20T05:51:55;2.15;;;1.05;;
17864;SDS011;9058;52.018;4.202;2023-07-20T05:54:23;1.20;;;1.13;;
17864;SDS011;9058;52.018;4.202;2023-07-20T05:56:50;1.63;;;1.10;;
17864;SDS011;9058;52.018;4.202;2023-07-20T05:59:17;2.88;;;1.02;;
17864;SDS011;9058;52.018;4.202;2023-07-20T06:01:44;2.17;;;1.00;;
17864;SDS011;9058;52.018;4.202;2023-07-20T06:04:11;2.55;;;1.10;;
17864;SDS011;9058;52.018;4.202;2023-07-20T06:06:39;1.48;;;0.90;;
17864;SDS011;9058;52.018;4.202;2023-07-20T06:09:05;2.45;;;0.70;;
17864;SDS011;9058;52.018;4.202;2023-07-20T06:11:34;0.80;;;0.60;;
17864;SDS011;9058;52.018;4.202;2023-07-20T06:14:01;0.98;;;0.70;;
17864;SDS011;9058;52.018;4.202;2023-07-20T06:16:27;0.82;;;0.70;;
17864;SDS011;9058;52.018;4.202;2023-07-20T06:18:55;0.68;;;0.65;;
17864;SDS011;9058;52.018;4.202;2023-07-20T06:21:21;1.73;;;1.00;;
17864;SDS011;9058;52.018;4.202;2023-07-20T06:23:49;1.02;;;0.70;;
17864;SDS011;9058;52.018;4.202;2023-07-20T06:26:15;1.00;;;1.00;;
17864;SDS011;9058;52.018;4.202;2023-07-20T06:28:42;1.15;;;0.80;;
17864;SDS011;9058;52.018;4.202;2023-07-20T06:31:09;1.73;;;0.70;;
17864;SDS011;9058;52.018;4.202;2023-07-20T06:33:36;1.30;;;0.90;;
17864;SDS011;9058;52.018;4.202;2023-07-20T06:36:03;1.67;;;0.50;;
17864;SDS011;9058;52.018;4.202;2023-07-20T06:38:29;1.52;;;0.70;;
17864;SDS011;9058;52.018;4.202;2023-07-20T06:40:57;4.55;;;0.85;;
17864;SDS011;9058;52.018;4.202;2023-07-20T06:43:24;1.48;;;0.50;;
17864;SDS011;9058;52.018;4.202;2023-07-20T06:45:51;0.60;;;0.60;;
17864;SDS011;9058;52.018;4.202;2023-07-20T06:48:18;0.98;;;0.70;;
17864;SDS011;9058;52.018;4.202;2023-07-20T06:50:45;0.82;;;0.80;;
17864;SDS011;9058;52.018;4.202;2023-07-20T06:53:30;1.50;;;0.80;;
17864;SDS011;9058;52.018;4.202;2023-07-20T06:55:58;0.80;;;0.80;;
17864;SDS011;9058;52.018;4.202;2023-07-20T06:58:24;1.25;;;0.57;;
17864;SDS011;9058;52.018;4.202;2023-07-20T07:00:51;1.45;;;0.43;;
17864;SDS011;9058;52.018;4.202;2023-07-20T07:03:18;0.98;;;0.60;;
17864;SDS011;9058;52.018;4.202;2023-07-20T07:05:46;4.32;;;0.88;;
17864;SDS011;9058;52.018;4.202;2023-07-20T07:08:13;0.70;;;0.30;;
17864;SDS011;9058;52.018;4.202;2023-07-20T07:10:40;0.63;;;0.50;;
17864;SDS011;9058;52.018;4.202;2023-07-20T07:13:08;1.05;;;0.50;;
17864;SDS011;9058;52.018;4.202;2023-07-20T07:15:34;1.92;;;0.73;;
17864;SDS011;9058;52.018;4.202;2023-07-20T07:18:00;1.33;;;1.00;;
17864;SDS011;9058;52.018;4.202;2023-07-20T07:20:28;1.75;;;0.50;;
17864;SDS011;9058;52.018;4.202;2023-07-20T07:22:55;1.45;;;0.73;;
17864;SDS011;9058;52.018;4.202;2023-07-20T07:25:22;1.65;;;0.82;;
17864;SDS011;9058;52.018;4.202;2023-07-20T07:27:48;1.80;;;0.60;;
17864;SDS011;9058;52.018;4.202;2023-07-20T07:30:16;0.93;;;0.60;;
17864;SDS011;9058;52.018;4.202;2023-07-20T07:32:43;1.10;;;0.63;;
17864;SDS011;9058;52.018;4.202;2023-07-20T07:35:09;0.82;;;0.80;;
17864;SDS011;9058;52.018;4.202;2023-07-20T07:37:36;1.38;;;0.47;;
17864;SDS011;9058;52.018;4.202;2023-07-20T07:40:03;0.98;;;0.65;;
17864;SDS011;9058;52.018;4.202;2023-07-20T07:42:37;0.35;;;0.35;;
17864;SDS011;9058;52.018;4.202;2023-07-20T07:45:03;0.75;;;0.43;;
17864;SDS011;9058;52.018;4.202;2023-07-20T07:47:31;0.73;;;0.50;;
17864;SDS011;9058;52.018;4.202;2023-07-20T07:49:58;1.45;;;0.70;;
17864;SDS011;9058;52.018;4.202;2023-07-20T07:52:24;0.65;;;0.60;;
17864;SDS011;9058;52.018;4.202;2023-07-20T07:54:51;1.20;;;0.30;;
17864;SDS011;9058;52.018;4.202;2023-07-20T07:57:18;1.52;;;0.55;;
17864;SDS011;9058;52.018;4.202;2023-07-20T07:59:45;1.65;;;0.70;;
17864;SDS011;9058;52.018;4.202;2023-07-20T08:02:11;1.95;;;0.82;;
17864;SDS011;9058;52.018;4.202;2023-07-20T08:04:39;0.82;;;0.52;;
17864;SDS011;9058;52.018;4.202;2023-07-20T08:07:06;4.25;;;1.10;;
17864;SDS011;9058;52.018;4.202;2023-07-20T08:09:32;2.20;;;0.80;;
17864;SDS011;9058;52.018;4.202;2023-07-20T08:11:59;2.53;;;0.68;;
17864;SDS011;9058;52.018;4.202;2023-07-20T08:14:26;1.95;;;0.88;;
17864;SDS011;9058;52.018;4.202;2023-07-20T08:16:53;0.52;;;0.50;;
17864;SDS011;9058;52.018;4.202;2023-07-20T08:19:20;3.72;;;1.38;;
17864;SDS011;9058;52.018;4.202;2023-07-20T08:21:48;3.45;;;1.20;;
17864;SDS011;9058;52.018;4.202;2023-07-20T08:24:14;2.55;;;0.60;;
17864;SDS011;9058;52.018;4.202;2023-07-20T08:26:41;0.65;;;0.50;;
17864;SDS011;9058;52.018;4.202;2023-07-20T08:29:08;3.88;;;0.70;;
17864;SDS011;9058;52.018;4.202;2023-07-20T08:31:35;0.85;;;0.50;;
17864;SDS011;9058;52.018;4.202;2023-07-20T08:34:01;3.75;;;1.27;;
17864;SDS011;9058;52.018;4.202;2023-07-20T08:36:28;3.53;;;1.15;;
17864;SDS011;9058;52.018;4.202;2023-07-20T08:38:56;6.40;;;2.33;;
17864;SDS011;9058;52.018;4.202;2023-07-20T08:41:23;7.70;;;2.78;;
17864;SDS011;9058;52.018;4.202;2023-07-20T08:43:49;2.15;;;0.80;;
17864;SDS011;9058;52.018;4.202;2023-07-20T08:46:16;4.68;;;1.25;;
17864;SDS011;9058;52.018;4.202;2023-07-20T08:48:43;8.95;;;2.83;;
17864;SDS011;9058;52.018;4.202;2023-07-20T08:51:10;7.07;;;1.90;;
17864;SDS011;9058;52.018;4.202;2023-07-20T08:53:38;3.55;;;1.60;;
17864;SDS011;9058;52.018;4.202;2023-07-20T08:56:06;6.97;;;1.85;;
17864;SDS011;9058;52.018;4.202;2023-07-20T08:58:32;7.68;;;2.55;;
17864;SDS011;9058;52.018;4.202;2023-07-20T09:01:00;2.65;;;0.93;;
17864;SDS011;9058;52.018;4.202;2023-07-20T09:03:27;4.88;;;1.50;;
17864;SDS011;9058;52.018;4.202;2023-07-20T09:05:53;8.75;;;2.45;;
17864;SDS011;9058;52.018;4.202;2023-07-20T09:08:20;5.35;;;1.08;;
17864;SDS011;9058;52.018;4.202;2023-07-20T09:10:47;1.20;;;0.70;;
17864;SDS011;9058;52.018;4.202;2023-07-20T09:13:15;1.17;;;0.50;;
17864;SDS011;9058;52.018;4.202;2023-07-20T09:15:45;0.80;;;0.52;;
17864;SDS011;9058;52.018;4.202;2023-07-20T09:18:12;7.25;;;2.10;;
17864;SDS011;9058;52.018;4.202;2023-07-20T09:20:49;1.75;;;0.70;;
17864;SDS011;9058;52.018;4.202;2023-07-20T09:23:15;0.52;;;0.52;;
17864;SDS011;9058;52.018;4.202;2023-07-20T09:25:43;9.73;;;3.00;;
17864;SDS011;9058;52.018;4.202;2023-07-20T09:28:11;1.85;;;0.60;;
17864;SDS011;9058;52.018;4.202;2023-07-20T09:30:39;3.17;;;1.35;;
17864;SDS011;9058;52.018;4.202;2023-07-20T09:33:05;1.05;;;0.63;;
17864;SDS011;9058;52.018;4.202;2023-07-20T09:35:32;11.85;;;2.78;;
17864;SDS011;9058;52.018;4.202;2023-07-20T09:38:10;4.18;;;1.10;;
17864;SDS011;9058;52.018;4.202;2023-07-20T09:40:37;3.53;;;1.40;;
17864;SDS011;9058;52.018;4.202;2023-07-20T09:43:04;12.07;;;2.50;;
17864;SDS011;9058;52.018;4.202;2023-07-20T09:45:34;6.43;;;1.95;;
17864;SDS011;9058;52.018;4.202;2023-07-20T09:48:06;7.50;;;2.42;;
17864;SDS011;9058;52.018;4.202;2023-07-20T09:50:33;5.43;;;1.48;;
17864;SDS011;9058;52.018;4.202;2023-07-20T09:53:00;1.75;;;0.47;;
17864;SDS011;9058;52.018;4.202;2023-07-20T09:55:27;9.82;;;2.60;;
17864;SDS011;9058;52.018;4.202;2023-07-20T09:57:53;8.70;;;2.08;;
17864;SDS011;9058;52.018;4.202;2023-07-20T10:00:21;6.47;;;2.25;;
17864;SDS011;9058;52.018;4.202;2023-07-20T10:02:47;5.00;;;1.60;;
17864;SDS011;9058;52.018;4.202;2023-07-20T10:05:17;8.75;;;1.80;;
17864;SDS011;9058;52.018;4.202;2023-07-20T10:07:44;2.28;;;0.70;;
17864;SDS011;9058;52.018;4.202;2023-07-20T10:10:11;10.70;;;2.70;;
17864;SDS011;9058;52.018;4.202;2023-07-20T10:12:39;9.75;;;2.10;;
17864;SDS011;9058;52.018;4.202;2023-07-20T10:15:09;18.38;;;4.88;;
17864;SDS011;9058;52.018;4.202;2023-07-20T10:17:37;17.52;;;4.38;;
17864;SDS011;9058;52.018;4.202;2023-07-20T10:20:06;3.90;;;1.70;;
17864;SDS011;9058;52.018;4.202;2023-07-20T10:22:37;3.40;;;1.40;;
17864;SDS011;9058;52.018;4.202;2023-07-20T10:25:04;5.97;;;2.00;;
17864;SDS011;9058;52.018;4.202;2023-07-20T10:27:32;11.90;;;2.75;;
17864;SDS011;9058;52.018;4.202;2023-07-20T10:29:59;2.90;;;1.10;;
17864;SDS011;9058;52.018;4.202;2023-07-20T10:32:27;6.45;;;1.60;;
17864;SDS011;9058;52.018;4.202;2023-07-20T10:34:55;3.58;;;1.08;;
17864;SDS011;9058;52.018;4.202;2023-07-20T10:40:25;6.55;;;1.83;;
17864;SDS011;9058;52.018;4.202;2023-07-20T10:42:56;0.77;;;0.52;;
17864;SDS011;9058;52.018;4.202;2023-07-20T10:45:32;8.95;;;2.50;;
17864;SDS011;9058;52.018;4.202;2023-07-20T10:47:58;2.55;;;1.02;;
17864;SDS011;9058;52.018;4.202;2023-07-20T10:50:29;5.32;;;1.30;;
17864;SDS011;9058;52.018;4.202;2023-07-20T10:53:04;6.00;;;1.92;;
17864;SDS011;9058;52.018;4.202;2023-07-20T10:55:32;3.28;;;1.13;;
17864;SDS011;9058;52.018;4.202;2023-07-20T10:58:06;2.47;;;0.80;;
17864;SDS011;9058;52.018;4.202;2023-07-20T11:00:33;1.05;;;0.40;;
17864;SDS011;9058;52.018;4.202;2023-07-20T11:02:59;12.40;;;2.65;;
17864;SDS011;9058;52.018;4.202;2023-07-20T11:05:31;6.70;;;1.85;;
17864;SDS011;9058;52.018;4.202;2023-07-20T11:07:58;2.70;;;0.70;;
17864;SDS011;9058;52.018;4.202;2023-07-20T11:10:24;3.20;;;0.73;;
17864;SDS011;9058;52.018;4.202;2023-07-20T11:16:01;16.45;;;4.05;;
17864;SDS011;9058;52.018;4.202;2023-07-20T11:18:28;3.35;;;1.13;;
17864;SDS011;9058;52.018;4.202;2023-07-20T11:20:55;2.50;;;0.80;;
17864;SDS011;9058;52.018;4.202;2023-07-20T11:23:22;1.75;;;0.95;;
17864;SDS011;9058;52.018;4.202;2023-07-20T11:25:49;0.90;;;0.40;;
17864;SDS011;9058;52.018;4.202;2023-07-20T11:28:15;2.30;;;0.68;;
17864;SDS011;9058;52.018;4.202;2023-07-20T11:30:42;0.82;;;0.50;;
17864;SDS011;9058;52.018;4.202;2023-07-20T11:33:09;8.60;;;2.67;;
17864;SDS011;9058;52.018;4.202;2023-07-20T11:35:36;4.22;;;0.98;;
17864;SDS011;9058;52.018;4.202;2023-07-20T11:38:08;5.55;;;2.13;;
17864;SDS011;9058;52.018;4.202;2023-07-20T11:40:34;5.18;;;1.50;;
17864;SDS011;9058;52.018;4.202;2023-07-20T11:43:02;10.93;;;2.50;;
17864;SDS011;9058;52.018;4.202;2023-07-20T11:45:28;15.23;;;3.60;;
17864;SDS011;9058;52.018;4.202;2023-07-20T11:47:58;2.92;;;1.40;;
17864;SDS011;9058;52.018;4.202;2023-07-20T11:50:26;7.50;;;2.05;;
17864;SDS011;9058;52.018;4.202;2023-07-20T11:52:52;3.55;;;1.40;;
17864;SDS011;9058;52.018;4.202;2023-07-20T11:55:19;5.40;;;1.50;;
17864;SDS011;9058;52.018;4.202;2023-07-20T11:58:00;15.13;;;4.03;;
17864;SDS011;9058;52.018;4.202;2023-07-20T12:00:26;5.35;;;1.95;;
17864;SDS011;9058;52.018;4.202;2023-07-20T12:02:53;13.73;;;3.53;;
17864;SDS011;9058;52.018;4.202;2023-07-20T12:05:22;7.85;;;2.22;;
17864;SDS011;9058;52.018;4.202;2023-07-20T12:07:50;32.92;;;8.18;;
17864;SDS011;9058;52.018;4.202;2023-07-20T12:10:22;14.23;;;3.22;;
17864;SDS011;9058;52.018;4.202;2023-07-20T12:12:49;6.80;;;2.03;;
17864;SDS011;9058;52.018;4.202;2023-07-20T12:15:16;15.18;;;3.63;;
17864;SDS011;9058;52.018;4.202;2023-07-20T12:17:43;10.02;;;3.00;;
17864;SDS011;9058;52.018;4.202;2023-07-20T12:20:09;6.78;;;1.80;;
17864;SDS011;9058;52.018;4.202;2023-07-20T12:22:38;11.30;;;2.83;;
17864;SDS011;9058;52.018;4.202;2023-07-20T12:25:06;7.90;;;2.30;;
17864;SDS011;9058;52.018;4.202;2023-07-20T12:27:35;1.98;;;0.65;;
17864;SDS011;9058;52.018;4.202;2023-07-20T12:30:01;6.95;;;2.00;;
17864;SDS011;9058;52.018;4.202;2023-07-20T12:32:29;7.32;;;2.50;;
17864;SDS011;9058;52.018;4.202;2023-07-20T12:34:56;1.17;;;0.55;;
17864;SDS011;9058;52.018;4.202;2023-07-20T12:37:22;11.15;;;2.72;;
17864;SDS011;9058;52.018;4.202;2023-07-20T12:39:49;7.88;;;1.80;;
17864;SDS011;9058;52.018;4.202;2023-07-20T12:42:17;6.07;;;1.85;;
17864;SDS011;9058;52.018;4.202;2023-07-20T12:44:43;2.25;;;0.73;;
17864;SDS011;9058;52.018;4.202;2023-07-20T12:47:10;2.88;;;1.02;;
17864;SDS011;9058;52.018;4.202;2023-07-20T12:49:36;5.57;;;1.50;;
17864;SDS011;9058;52.018;4.202;2023-07-20T12:52:03;11.75;;;3.08;;
17864;SDS011;9058;52.018;4.202;2023-07-20T12:54:29;2.42;;;0.40;;
17864;SDS011;9058;52.018;4.202;2023-07-20T12:56:56;4.40;;;1.50;;
17864;SDS011;9058;52.018;4.202;2023-07-20T12:59:23;3.22;;;1.25;;
17864;SDS011;9058;52.018;4.202;2023-07-20T13:01:50;3.85;;;0.90;;
17864;SDS011;9058;52.018;4.202;2023-07-20T13:04:16;19.75;;;5.53;;
17864;SDS011;9058;52.018;4.202;2023-07-20T13:06:43;1.02;;;0.50;;
17864;SDS011;9058;52.018;4.202;2023-07-20T13:09:10;8.00;;;2.35;;
17864;SDS011;9058;52.018;4.202;2023-07-20T13:11:36;2.60;;;1.00;;
17864;SDS011;9058;52.018;4.202;2023-07-20T13:14:02;9.77;;;2.45;;
17864;SDS011;9058;52.018;4.202;2023-07-20T13:16:30;8.45;;;2.20;;
17864;SDS011;9058;52.018;4.202;2023-07-20T13:18:56;4.63;;;0.90;;
17864;SDS011;9058;52.018;4.202;2023-07-20T13:21:23;6.80;;;2.55;;
17864;SDS011;9058;52.018;4.202;2023-07-20T13:23:50;3.20;;;0.90;;
17864;SDS011;9058;52.018;4.202;2023-07-20T13:26:16;9.00;;;2.58;;
17864;SDS011;9058;52.018;4.202;2023-07-20T13:28:42;8.48;;;2.35;;
17864;SDS011;9058;52.018;4.202;2023-07-20T13:31:09;2.53;;;0.80;;
17864;SDS011;9058;52.018;4.202;2023-07-20T13:33:37;13.35;;;2.92;;
17864;SDS011;9058;52.018;4.202;2023-07-20T13:36:04;8.38;;;2.17;;
17864;SDS011;9058;52.018;4.202;2023-07-20T13:38:31;5.38;;;2.00;;
17864;SDS011;9058;52.018;4.202;2023-07-20T13:40:58;4.78;;;1.70;;
17864;SDS011;9058;52.018;4.202;2023-07-20T13:43:24;2.55;;;0.80;;
17864;SDS011;9058;52.018;4.202;2023-07-20T13:45:51;4.07;;;1.55;;
17864;SDS011;9058;52.018;4.202;2023-07-20T13:48:18;3.13;;;0.70;;
17864;SDS011;9058;52.018;4.202;2023-07-20T13:50:49;3.17;;;1.00;;
17864;SDS011;9058;52.018;4.202;2023-07-20T13:53:16;2.83;;;1.08;;
17864;SDS011;9058;52.018;4.202;2023-07-20T13:55:42;1.48;;;0.90;;
17864;SDS011;9058;52.018;4.202;2023-07-20T13:58:10;5.75;;;1.70;;
17864;SDS011;9058;52.018;4.202;2023-07-20T14:00:38;6.22;;;2.08;;
17864;SDS011;9058;52.018;4.202;2023-07-20T14:03:05;3.67;;;1.48;;
17864;SDS011;9058;52.018;4.202;2023-07-20T14:05:32;2.10;;;1.00;;
17864;SDS011;9058;52.018;4.202;2023-07-20T14:08:01;2.38;;;0.93;;
17864;SDS011;9058;52.018;4.202;2023-07-20T14:10:27;1.10;;;0.63;;
17864;SDS011;9058;52.018;4.202;2023-07-20T14:12:54;0.73;;;0.60;;
17864;SDS011;9058;52.018;4.202;2023-07-20T14:15:22;1.65;;;0.68;;
17864;SDS011;9058;52.018;4.202;2023-07-20T14:17:48;0.40;;;0.40;;
17864;SDS011;9058;52.018;4.202;2023-07-20T14:20:15;2.15;;;0.90;;
17864;SDS011;9058;52.018;4.202;2023-07-20T14:22:41;6.22;;;1.65;;
17864;SDS011;9058;52.018;4.202;2023-07-20T14:25:10;4.00;;;1.50;;
17864;SDS011;9058;52.018;4.202;2023-07-20T14:27:36;4.22;;;1.35;;
17864;SDS011;9058;52.018;4.202;2023-07-20T14:30:03;9.65;;;1.88;;
17864;SDS011;9058;52.018;4.202;2023-07-20T14:32:30;3.90;;;1.42;;
17864;SDS011;9058;52.018;4.202;2023-07-20T14:34:58;1.77;;;0.70;;
17864;SDS011;9058;52.018;4.202;2023-07-20T14:37:24;4.22;;;1.92;;
17864;SDS011;9058;52.018;4.202;2023-07-20T14:39:51;2.78;;;1.10;;
17864;SDS011;9058;52.018;4.202;2023-07-20T14:42:19;3.10;;;1.20;;
17864;SDS011;9058;52.018;4.202;2023-07-20T14:44:45;1.77;;;0.93;;
17864;SDS011;9058;52.018;4.202;2023-07-20T14:47:12;4.95;;;1.13;;
17864;SDS011;9058;52.018;4.202;2023-07-20T14:49:38;10.13;;;2.22;;
17864;SDS011;9058;52.018;4.202;2023-07-20T14:52:05;8.25;;;2.22;;
17864;SDS011;9058;52.018;4.202;2023-07-20T14:54:32;11.27;;;3.17;;
17864;SDS011;9058;52.018;4.202;2023-07-20T14:56:58;2.53;;;1.25;;
17864;SDS011;9058;52.018;4.202;2023-07-20T14:59:27;3.17;;;1.42;;
17864;SDS011;9058;52.018;4.202;2023-07-20T15:01:54;5.28;;;1.98;;
17864;SDS011;9058;52.018;4.202;2023-07-20T15:04:20;10.27;;;2.88;;
17864;SDS011;9058;52.018;4.202;2023-07-20T15:06:47;2.60;;;0.77;;
17864;SDS011;9058;52.018;4.202;2023-07-20T15:09:13;3.90;;;1.13;;